• Join FlightAware (Why Join?)
  • Login
  • US Flag 
Rudolph Flight #1: Scheduled 
08:37PM EST


 

Airport Tracker/Info


-or-


 

Live Flight TrackerFlight Track Log ✈ USC108 ✈ 07-May-2013 ✈ KLCK - KJVY

Flight Track Log - Related Links

Times and Time Zones

All times are in EDT time to prevent confusion due to time zone crossing. See the USC108 flight status page for this flight to view local times or setup timezone preferences in your user account.

Time Position Orientation Groundspeed Altitude Reporting Facility
EDT Latitude Longitude Course Direction KTS MPH feet Rate Location/Type
11:15PM 39.8058 -82.9419 228° Southwest 103 119 1,100  Level Indianapolis Center
11:15PM 39.7917 -82.9622 228° Southwest 121 139 1,900 1,380 Climbing Indianapolis Center
11:16PM 39.7642 -82.9997 226° Southwest 132 152 3,500 1,200 Climbing Indianapolis Center
11:17PM 39.7594 -83.0056 224° Southwest 132 152 3,600 1,080 Climbing Indianapolis Center
11:17PM 39.7428 -83.0381 236° Southwest 124 143 4,600 1,140 Climbing Indianapolis Center
11:18PM 39.7372 -83.0444 221° Southwest 133 153 4,800 1,080 Climbing Indianapolis Center
11:18PM 39.7208 -83.0814 240° Southwest 140 161 5,700 1,080 Climbing Indianapolis Center
11:19PM 39.7172 -83.0892 239° Southwest 140 161 5,900 420 Climbing Indianapolis Center
11:19PM 39.6989 -83.1278 238° Southwest 171 197 6,100 180 Climbing Indianapolis Center
11:20PM 39.6919 -83.1397 233° Southwest 162 186 6,100  Level Indianapolis Center
11:20PM 39.6653 -83.1889 235° Southwest 195 224 6,100  Level Indianapolis Center
11:21PM 39.6608 -83.1997 242° Southwest 190 219 6,100  Level Indianapolis Center
11:21PM 39.6378 -83.2506 240° Southwest 199 229 6,100  Level Indianapolis Center
11:22PM 39.6319 -83.2628 238° Southwest 198 228 6,100  Level Indianapolis Center
11:22PM 39.6083 -83.3119 238° Southwest 198 228 6,100  Level Indianapolis Center
11:23PM 39.6025 -83.3247 239° Southwest 199 229 6,100 -120 Level Indianapolis Center
11:23PM 39.5786 -83.3761 239° Southwest 200 230 6,000 -120 Descending Indianapolis Center
11:24PM 39.5714 -83.3856 225° Southwest 200 230 6,000 60 Level Indianapolis Center
11:24PM 39.5497 -83.4294 237° Southwest 203 234 6,100  Climbing Indianapolis Center
11:25PM 39.5408 -83.4478 238° Southwest 201 231 6,000  Descending Indianapolis Center
11:25PM 39.5222 -83.4883 239° Southwest 201 231 6,100 60 Climbing Indianapolis Center
11:26PM 39.5108 -83.5100 236° Southwest 201 231 6,100 -120 Level Indianapolis Center
11:26PM 39.4903 -83.5522 238° Southwest 199 229 6,000 -120 Descending Indianapolis Center
11:27PM 39.4792 -83.5703 231° Southwest 201 231 6,000  Level Indianapolis Center
11:27PM 39.4589 -83.6103 237° Southwest 197 227 6,000  Level Indianapolis Center
11:28PM 39.4489 -83.6286 235° Southwest 196 226 6,000 60 Level Indianapolis Center
11:28PM 39.4294 -83.6689 238° Southwest 197 227 6,100 -120 Climbing Indianapolis Center
11:29PM 39.4194 -83.6900 238° Southwest 197 227 5,900 -180 Descending Indianapolis Center
11:30PM 39.3856 -83.7606 238° Southwest 196 226 5,900  Level Indianapolis Center
11:31PM 39.3553 -83.8200 237° Southwest 196 226 5,900  Level Indianapolis Center
11:32PM 39.3261 -83.8794 238° Southwest 195 224 5,900  Level Indianapolis Center
11:33PM 39.2956 -83.9392 237° Southwest 197 227 5,900  Level Indianapolis Center
11:34PM 39.2653 -84.0006 238° Southwest 199 229 5,900  Level Indianapolis Center
11:35PM 39.2361 -84.0600 238° Southwest 195 224 5,900  Level Indianapolis Center
11:36PM 39.2053 -84.1186 236° Southwest 194 223 5,900  Level Indianapolis Center
11:37PM 39.1756 -84.1792 238° Southwest 197 227 5,900  Level Indianapolis Center
11:38PM 39.1450 -84.2394 237° Southwest 198 228 5,900  Level Indianapolis Center
11:39PM 39.1150 -84.2986 237° Southwest 197 227 5,900  Level Indianapolis Center
11:40PM 39.0836 -84.3592 236° Southwest 201 231 5,900  Level Indianapolis Center
11:41PM 39.0667 -84.3833 228° Southwest 198 228 5,900  Level Cincinnati TRACON
11:42PM 39.0333 -84.4500 237° Southwest 198 228 5,900  Level Cincinnati TRACON
11:43PM 39.0000 -84.5167 237° Southwest 200 230 5,900  Level Cincinnati TRACON
11:44PM 38.9833 -84.5667 247° West 202 232 5,900  Level Cincinnati TRACON
11:45PM 38.9500 -84.6333 237° Southwest 203 234 5,900  Level Cincinnati TRACON
11:46PM 38.9167 -84.6833 229° Southwest 202 232 5,900  Level Cincinnati TRACON
11:47PM 38.8833 -84.7500 237° Southwest 201 231 5,900  Level Cincinnati TRACON
11:47PM 38.8664 -84.7800 234° Southwest 201 231 5,900  Level Indianapolis Center
11:48PM 38.8358 -84.8394 237° Southwest 202 232 5,900  Level Indianapolis Center
11:49PM 38.8053 -84.8992 237° Southwest 200 230 5,900  Level Indianapolis Center
11:50PM 38.7733 -84.9589 236° Southwest 202 232 5,900  Level Indianapolis Center
11:51PM 38.7433 -85.0194 238° Southwest 202 232 5,900  Level Indianapolis Center
11:52PM 38.7122 -85.0775 236° Southwest 199 229 5,900  Level Indianapolis Center
11:53PM 38.6822 -85.1356 237° Southwest 196 226 5,900  Level Indianapolis Center
11:54PM 38.6514 -85.1936 236° Southwest 196 226 5,900  Level Indianapolis Center
11:55PM 38.6169 -85.2600 236° Southwest 200 230 5,900 -120 Level Indianapolis Center
11:56PM 38.5861 -85.3200 237° Southwest 201 231 5,700 -600 Descending Indianapolis Center
11:57PM 38.5536 -85.3803 235° Southwest 205 236 4,700 -840 Descending Indianapolis Center
11:58PM 38.5211 -85.4403 235° Southwest 205 236 4,000 -420 Descending Indianapolis Center
11:59PM 38.4897 -85.4992 236° Southwest 204 235 3,900 -120 Descending Indianapolis Center